createdAt,value
2022-09-11T00:02:01.714Z,71.68
2022-09-11T00:04:30.747Z,71.33
2022-09-11T00:07:00.748Z,71.51
2022-09-11T00:09:29.667Z,70.88
2022-09-11T00:11:58.442Z,71.13
2022-09-11T00:14:29.393Z,70.47
2022-09-11T00:16:58.117Z,70.70
2022-09-11T00:19:27.033Z,70.15
2022-09-11T00:21:57.861Z,70.18
2022-09-11T00:24:26.684Z,69.94
2022-09-11T00:26:55.395Z,69.52
2022-09-11T00:29:24.188Z,69.51
2022-09-11T00:31:53.189Z,69.84
2022-09-11T00:34:23.137Z,69.47
2022-09-11T00:36:54.051Z,69.37
2022-09-11T00:39:22.780Z,69.43
2022-09-11T00:41:51.630Z,69.21
2022-09-11T00:44:20.334Z,69.03
2022-09-11T00:46:50.096Z,69.01
2022-09-11T00:49:33.523Z,68.87
2022-09-11T00:52:16.133Z,68.39
2022-09-11T00:54:52.839Z,67.74
2022-09-11T00:57:25.548Z,65.92
2022-09-11T00:59:59.008Z,64.58
2022-09-11T01:02:31.192Z,63.61
2022-09-11T01:05:01.409Z,63.31
2022-09-11T01:07:34.133Z,63.09
2022-09-11T01:10:04.786Z,62.50
2022-09-11T01:13:05.617Z,61.31
2022-09-11T01:15:42.021Z,60.04
2022-09-11T01:18:22.318Z,58.44
2022-09-11T01:21:05.384Z,57.73
2022-09-11T01:24:12.327Z,57.39
2022-09-11T01:27:02.779Z,56.71
2022-09-11T01:29:42.791Z,55.95
2022-09-11T01:32:40.541Z,55.72
2022-09-11T01:35:21.550Z,55.06
2022-09-11T01:38:00.516Z,54.39
2022-09-11T01:40:35.711Z,53.38
2022-09-11T01:43:13.532Z,53.16
2022-09-11T01:45:46.950Z,52.32
2022-09-11T01:48:22.032Z,51.67
2022-09-11T01:50:53.905Z,50.91
2022-09-11T01:53:29.587Z,49.86
2022-09-11T01:56:08.286Z,49.12
2022-09-11T01:58:41.861Z,48.73
2022-09-11T02:01:23.988Z,48.16
2022-09-11T02:04:03.246Z,47.81
2022-09-11T02:06:41.336Z,47.33
2022-09-11T02:09:15.172Z,46.81
2022-09-11T02:11:47.581Z,45.85
2022-09-11T02:14:25.850Z,45.27
2022-09-11T02:17:04.609Z,44.60
2022-09-11T02:19:33.793Z,44.21
2022-09-11T02:22:02.729Z,43.23
2022-09-11T02:24:31.577Z,43.03
2022-09-11T02:27:04.784Z,41.82
2022-09-11T02:29:35.143Z,40.85
2022-09-11T02:32:06.133Z,39.81
2022-09-11T02:34:37.443Z,38.85
2022-09-11T02:37:35.983Z,38.23
2022-09-11T02:40:15.331Z,37.62
2022-09-11T02:43:18.508Z,37.66
2022-09-11T02:46:10.116Z,36.51
2022-09-11T02:49:13.092Z,35.67
2022-09-11T02:51:56.492Z,35.24
2022-09-11T02:54:48.209Z,34.53
2022-09-11T02:57:43.922Z,34.71
2022-09-11T03:00:14.457Z,33.77
2022-09-11T03:02:44.756Z,33.12
2022-09-11T03:05:14.104Z,32.85
2022-09-11T03:07:43.388Z,31.79
2022-09-11T03:10:12.422Z,31.84
2022-09-11T03:12:42.389Z,30.74
2022-09-11T03:15:13.223Z,30.35
2022-09-11T03:17:44.382Z,30.16
2022-09-11T03:20:13.490Z,29.73
2022-09-11T03:22:42.278Z,29.68
2022-09-11T03:25:12.548Z,29.79
2022-09-11T03:27:42.664Z,28.96
2022-09-11T03:30:13.862Z,28.54
2022-09-11T03:32:42.846Z,28.05
2022-09-11T03:35:14.341Z,27.87
2022-09-11T03:37:43.269Z,27.53
2022-09-11T03:40:12.397Z,27.20
2022-09-11T03:42:41.242Z,26.69
2022-09-11T03:45:10.427Z,26.39
2022-09-11T03:47:41.414Z,25.94
2022-09-11T03:50:11.982Z,25.74
2022-09-11T03:52:40.790Z,24.76
2022-09-11T03:55:10.068Z,23.90
2022-09-11T03:57:42.609Z,23.71
2022-09-11T04:00:13.728Z,24.12
2022-09-11T04:02:56.799Z,23.67
2022-09-11T04:05:34.935Z,23.56
2022-09-11T04:08:04.163Z,23.37
2022-09-11T04:10:34.958Z,22.91
2022-09-11T04:13:05.751Z,23.27
2022-09-11T04:15:36.218Z,23.81
2022-09-11T04:18:09.167Z,23.15
2022-09-11T04:20:40.508Z,22.49
2022-09-11T04:23:09.830Z,22.46
2022-09-11T04:25:39.422Z,21.51
2022-09-11T04:28:08.990Z,21.47
2022-09-11T04:30:40.662Z,21.51
2022-09-11T04:33:09.787Z,21.27
2022-09-11T04:35:42.443Z,21.92
2022-09-11T04:38:12.193Z,21.66
2022-09-11T04:40:42.163Z,21.62
2022-09-11T04:43:12.688Z,21.97
2022-09-11T04:45:42.261Z,21.70
2022-09-11T04:48:12.865Z,21.89
2022-09-11T04:50:41.937Z,22.49
2022-09-11T04:53:24.766Z,22.46
2022-09-11T04:55:53.656Z,23.43
2022-09-11T04:58:22.826Z,24.59
2022-09-11T05:00:53.556Z,25.28
2022-09-11T05:03:22.588Z,25.71
2022-09-11T05:05:51.596Z,25.84
2022-09-11T05:08:24.220Z,25.42
2022-09-11T05:10:54.526Z,23.95
2022-09-11T05:13:24.166Z,22.88
2022-09-11T05:15:52.998Z,23.12
2022-09-11T05:18:21.800Z,23.89
2022-09-11T05:21:01.199Z,24.34
2022-09-11T05:23:33.628Z,24.59
2022-09-11T05:26:05.545Z,24.43
2022-09-11T05:28:34.914Z,24.45
2022-09-11T05:31:12.933Z,24.19
2022-09-11T05:33:41.985Z,24.55
2022-09-11T05:36:13.192Z,23.63
2022-09-11T05:38:43.499Z,24.02
2022-09-11T05:41:14.448Z,24.37
2022-09-11T05:43:44.357Z,24.13
2022-09-11T05:46:16.896Z,24.24
2022-09-11T05:48:47.657Z,23.42
2022-09-11T05:51:22.119Z,23.07
2022-09-11T05:53:59.501Z,22.61
2022-09-11T05:56:28.944Z,21.70
2022-09-11T05:59:03.017Z,22.07
2022-09-11T06:01:39.329Z,22.88
2022-09-11T06:04:19.040Z,23.93
2022-09-11T06:06:50.104Z,24.45
2022-09-11T06:09:20.480Z,24.17
2022-09-11T06:11:49.932Z,23.22
2022-09-11T06:14:18.861Z,23.46
2022-09-11T06:16:48.364Z,23.29
2022-09-11T06:19:18.016Z,22.97
2022-09-11T06:21:48.167Z,24.24
2022-09-11T06:24:33.549Z,25.50
2022-09-11T06:27:02.392Z,25.17
2022-09-11T06:29:34.231Z,25.03
2022-09-11T06:32:04.385Z,24.22
2022-09-11T06:34:34.252Z,22.69
2022-09-11T06:37:07.103Z,21.32
2022-09-11T06:39:36.159Z,21.71
2022-09-11T06:42:05.470Z,22.09
2022-09-11T06:44:37.339Z,22.76
2022-09-11T06:47:07.539Z,22.57
2022-09-11T06:49:38.199Z,22.68
2022-09-11T06:52:29.632Z,22.23
2022-09-11T06:55:08.996Z,22.28
2022-09-11T06:57:42.201Z,21.28
2022-09-11T07:00:19.941Z,21.89
2022-09-11T07:02:49.095Z,21.19
2022-09-11T07:05:18.525Z,20.18
2022-09-11T07:07:52.357Z,20.20
2022-09-11T07:10:21.353Z,20.56
2022-09-11T07:12:56.297Z,19.97
2022-09-11T07:15:25.154Z,20.18
2022-09-11T07:17:55.026Z,19.85
2022-09-11T07:20:24.389Z,20.30
2022-09-11T07:22:54.347Z,20.04
2022-09-11T07:25:23.338Z,20.14
2022-09-11T07:27:55.588Z,20.01
2022-09-11T07:30:24.937Z,19.88
2022-09-11T07:32:57.152Z,19.96
2022-09-11T07:35:26.116Z,19.15
2022-09-11T07:37:55.815Z,19.53
2022-09-11T07:40:27.486Z,19.14
2022-09-11T07:42:58.898Z,18.54
2022-09-11T07:45:28.731Z,19.17
2022-09-11T07:47:58.098Z,19.11
2022-09-11T07:50:27.359Z,19.48
2022-09-11T07:52:56.189Z,19.88
2022-09-11T07:55:25.661Z,19.15
2022-09-11T07:57:56.030Z,19.41
2022-09-11T08:00:26.272Z,19.13
2022-09-11T08:03:07.891Z,19.80
2022-09-11T08:05:39.496Z,20.09
2022-09-11T08:08:12.776Z,19.90
2022-09-11T08:10:41.654Z,20.36
2022-09-11T08:13:10.794Z,20.14
2022-09-11T08:15:47.468Z,19.99
2022-09-11T08:18:16.606Z,20.38
2022-09-11T08:20:46.425Z,19.16
2022-09-11T08:23:16.110Z,19.72
2022-09-11T08:25:45.154Z,19.81
2022-09-11T08:28:14.525Z,21.14
2022-09-11T08:30:44.315Z,22.18
2022-09-11T08:33:13.374Z,24.17
2022-09-11T08:35:43.296Z,25.37
2022-09-11T08:38:12.139Z,26.34
2022-09-11T08:40:41.654Z,27.12
2022-09-11T08:43:20.124Z,27.89
2022-09-11T08:45:50.585Z,28.63
2022-09-11T08:48:28.608Z,28.65
2022-09-11T08:50:57.693Z,29.27
2022-09-11T08:53:28.012Z,29.50
2022-09-11T08:56:04.244Z,29.86
2022-09-11T08:58:47.847Z,30.07
2022-09-11T09:01:40.595Z,30.78
2022-09-11T09:04:42.708Z,31.13
2022-09-11T09:08:05.138Z,31.40
2022-09-11T09:10:50.790Z,31.78
2022-09-11T09:13:48.323Z,31.95
2022-09-11T09:16:40.749Z,32.19
2022-09-11T09:19:16.261Z,32.40
2022-09-11T09:22:16.976Z,32.72
2022-09-11T09:24:52.856Z,33.09
2022-09-11T09:27:36.287Z,33.78
2022-09-11T09:30:14.106Z,34.06
2022-09-11T09:32:52.505Z,33.81
2022-09-11T09:35:27.131Z,33.83
2022-09-11T09:37:56.425Z,34.15
2022-09-11T09:40:26.867Z,34.21
2022-09-11T09:43:20.164Z,34.26
2022-09-11T09:46:07.515Z,34.17
2022-09-11T09:48:40.452Z,34.66
2022-09-11T09:51:13.958Z,34.37
2022-09-11T09:54:01.934Z,34.55
2022-09-11T09:56:38.265Z,35.19
2022-09-11T09:59:10.291Z,34.99
2022-09-11T10:01:47.243Z,35.21
2022-09-11T10:04:21.434Z,35.36
2022-09-11T10:07:00.314Z,35.37
2022-09-11T10:09:30.869Z,35.53
2022-09-11T10:12:06.645Z,35.69
2022-09-11T10:14:52.644Z,35.70
2022-09-11T10:17:31.798Z,35.64
2022-09-11T10:20:23.581Z,35.77
2022-09-11T10:22:53.682Z,36.09
2022-09-11T10:25:28.218Z,36.40
2022-09-11T10:28:20.019Z,36.22
2022-09-11T10:30:59.973Z,36.54
2022-09-11T10:33:31.427Z,36.48
2022-09-11T10:36:02.539Z,36.68
2022-09-11T10:38:41.160Z,36.73
2022-09-11T10:41:19.785Z,36.95
2022-09-11T10:44:01.127Z,37.29
2022-09-11T10:46:40.731Z,37.28
2022-09-11T10:49:22.507Z,37.45
2022-09-11T10:52:17.897Z,37.62
2022-09-11T10:55:01.717Z,37.99
2022-09-11T10:57:41.129Z,38.28
2022-09-11T11:00:22.752Z,38.55
2022-09-11T11:02:58.813Z,38.65
2022-09-11T11:06:15.290Z,38.97
2022-09-11T11:09:03.771Z,39.00
2022-09-11T11:11:41.133Z,39.60
2022-09-11T11:14:46.459Z,39.90
2022-09-11T11:17:28.910Z,40.31
2022-09-11T11:20:21.797Z,40.73
2022-09-11T11:23:16.674Z,40.83
2022-09-11T11:26:07.184Z,41.06
2022-09-11T11:29:20.685Z,41.50
2022-09-11T11:32:20.689Z,42.21
2022-09-11T11:35:20.940Z,42.69
2022-09-11T11:37:53.899Z,42.57
2022-09-11T11:40:42.443Z,43.20
2022-09-11T11:43:18.018Z,43.30
2022-09-11T11:45:50.157Z,43.50
2022-09-11T11:48:47.029Z,43.67
2022-09-11T11:51:25.453Z,44.16
2022-09-11T11:54:10.315Z,44.23
2022-09-11T11:57:01.382Z,44.23
2022-09-11T11:59:48.979Z,44.78
2022-09-11T12:02:42.125Z,44.65
2022-09-11T12:05:25.192Z,45.05
2022-09-11T12:07:54.558Z,44.77
2022-09-11T12:10:39.192Z,45.47
2022-09-11T12:13:14.384Z,45.32
2022-09-11T12:16:12.618Z,45.62
2022-09-11T12:18:43.876Z,45.75
2022-09-11T12:21:25.201Z,46.05
2022-09-11T12:23:53.882Z,45.98
2022-09-11T12:26:28.907Z,46.35
2022-09-11T12:29:13.675Z,46.50
2022-09-11T12:31:51.466Z,46.96
2022-09-11T12:34:48.256Z,46.73
2022-09-11T12:37:39.243Z,46.77
2022-09-11T12:40:19.406Z,46.74
2022-09-11T12:42:58.099Z,47.08
2022-09-11T12:45:35.391Z,47.29
2022-09-11T12:48:10.816Z,47.64
2022-09-11T12:50:40.949Z,47.28
2022-09-11T12:53:18.200Z,47.62
2022-09-11T12:55:58.830Z,47.82
2022-09-11T12:58:41.431Z,47.55
2022-09-11T13:01:20.554Z,47.85
2022-09-11T13:04:21.756Z,47.97
2022-09-11T13:07:00.114Z,48.24
2022-09-11T13:09:41.091Z,48.08
2022-09-11T13:12:24.824Z,48.69
2022-09-11T13:15:00.733Z,48.47
2022-09-11T13:17:35.077Z,48.40
2022-09-11T13:20:10.833Z,48.56
2022-09-11T13:22:40.072Z,48.79
2022-09-11T13:25:17.607Z,49.09
2022-09-11T13:27:58.499Z,48.92
2022-09-11T13:30:27.673Z,49.06
2022-09-11T13:33:09.207Z,48.92
2022-09-11T13:35:41.960Z,48.87
2022-09-11T13:38:24.633Z,49.14
2022-09-11T13:41:13.884Z,49.33
2022-09-11T13:43:44.875Z,49.29
2022-09-11T13:46:16.809Z,49.49
2022-09-11T13:48:48.029Z,49.53
2022-09-11T13:51:33.529Z,49.92
2022-09-11T13:54:13.915Z,49.88
2022-09-11T13:56:52.220Z,50.38
2022-09-11T13:59:42.798Z,49.83
2022-09-11T14:02:41.481Z,49.92
2022-09-11T14:05:33.153Z,50.12
2022-09-11T14:08:08.425Z,50.21
2022-09-11T14:10:43.135Z,50.24
2022-09-11T14:13:43.649Z,50.57
2022-09-11T14:16:15.265Z,50.51
2022-09-11T14:19:16.184Z,50.62
2022-09-11T14:21:47.797Z,50.83
2022-09-11T14:24:45.816Z,51.07
2022-09-11T14:27:33.418Z,51.10
2022-09-11T14:30:30.647Z,51.25
2022-09-11T14:33:24.968Z,51.54
2022-09-11T14:36:04.649Z,51.57
2022-09-11T14:38:38.790Z,51.94
2022-09-11T14:41:08.485Z,51.82
2022-09-11T14:43:39.474Z,51.87
2022-09-11T14:46:08.364Z,51.86
2022-09-11T14:48:37.321Z,52.29
2022-09-11T14:51:11.249Z,52.45
2022-09-11T14:53:43.817Z,52.21
2022-09-11T14:56:12.801Z,52.38
2022-09-11T14:58:41.726Z,52.73
2022-09-11T15:01:14.598Z,53.05
2022-09-11T15:03:43.846Z,53.08
2022-09-11T15:06:19.758Z,53.46
2022-09-11T15:08:48.745Z,53.66
2022-09-11T15:11:17.661Z,53.93
2022-09-11T15:14:10.973Z,54.19
2022-09-11T15:16:36.222Z,54.22
2022-09-11T15:19:05.201Z,54.22
2022-09-11T15:21:37.615Z,54.45
2022-09-11T15:24:06.891Z,54.59
2022-09-11T15:26:37.980Z,54.69
2022-09-11T15:29:11.370Z,54.83
2022-09-11T15:31:40.432Z,54.98
2022-09-11T15:34:09.383Z,54.85
2022-09-11T15:36:39.066Z,55.52
2022-09-11T15:39:09.388Z,55.40
2022-09-11T15:41:38.706Z,55.38
2022-09-11T15:44:13.085Z,55.66
2022-09-11T15:46:41.904Z,55.71
2022-09-11T15:49:11.080Z,55.70
2022-09-11T15:51:40.783Z,56.35
2022-09-11T15:54:11.562Z,56.47
2022-09-11T15:56:40.310Z,56.61
2022-09-11T15:59:10.772Z,56.26
2022-09-11T16:01:41.569Z,56.93
2022-09-11T16:04:14.382Z,56.96
2022-09-11T16:06:46.206Z,56.57
2022-09-11T16:09:19.314Z,57.14
2022-09-11T16:11:49.450Z,57.11
2022-09-11T16:14:22.847Z,57.55
2022-09-11T16:16:52.512Z,57.32
2022-09-11T16:19:23.526Z,57.70
2022-09-11T16:21:57.103Z,57.50
2022-09-11T16:24:28.206Z,57.91
2022-09-11T16:26:57.286Z,58.04
2022-09-11T16:29:51.192Z,58.14
2022-09-11T16:32:28.905Z,58.23
2022-09-11T16:34:58.210Z,58.00
2022-09-11T16:37:28.403Z,58.42
2022-09-11T16:39:57.262Z,58.66
2022-09-11T16:42:27.198Z,58.81
2022-09-11T16:44:56.124Z,58.67
2022-09-11T16:47:24.900Z,59.11
2022-09-11T16:50:09.496Z,59.04
2022-09-11T16:52:39.627Z,58.91
2022-09-11T16:55:10.332Z,59.03
2022-09-11T16:57:40.623Z,59.20
2022-09-11T17:00:11.139Z,59.46
2022-09-11T17:02:39.941Z,59.39
2022-09-11T17:05:09.719Z,59.59
2022-09-11T17:07:38.557Z,59.56
2022-09-11T17:10:08.012Z,59.96
2022-09-11T17:12:37.876Z,59.87
2022-09-11T17:15:07.455Z,59.77
2022-09-11T17:17:38.515Z,59.41
2022-09-11T17:20:09.939Z,59.63
2022-09-11T17:22:39.961Z,59.19
2022-09-11T17:25:09.134Z,59.23
2022-09-11T17:27:39.209Z,59.22
2022-09-11T17:30:08.525Z,59.16
2022-09-11T17:32:37.867Z,59.21
2022-09-11T17:35:06.958Z,59.28
2022-09-11T17:37:35.735Z,59.52
2022-09-11T17:40:09.399Z,59.63
2022-09-11T17:42:39.421Z,59.95
2022-09-11T17:45:08.813Z,59.91
2022-09-11T17:47:37.618Z,59.63
2022-09-11T17:50:06.821Z,59.71
2022-09-11T17:52:37.430Z,59.67
2022-09-11T17:55:06.590Z,59.62
2022-09-11T17:57:35.327Z,59.48
2022-09-11T18:00:06.264Z,59.67
2022-09-11T18:02:41.211Z,59.20
2022-09-11T18:05:10.334Z,59.30
2022-09-11T18:07:39.678Z,59.55
2022-09-11T18:10:09.234Z,59.41
2022-09-11T18:12:39.360Z,59.20
2022-09-11T18:15:08.933Z,59.19
2022-09-11T18:17:38.723Z,59.17
2022-09-11T18:20:08.622Z,59.16
2022-09-11T18:22:39.891Z,59.09
2022-09-11T18:25:10.293Z,59.30
2022-09-11T18:27:39.905Z,59.36
2022-09-11T18:30:09.851Z,59.58
2022-09-11T18:32:39.964Z,59.17
2022-09-11T18:35:09.980Z,59.55
2022-09-11T18:37:39.328Z,59.59
2022-09-11T18:40:08.561Z,59.94
2022-09-11T18:42:37.297Z,59.67
2022-09-11T18:45:07.130Z,59.95
2022-09-11T18:47:35.857Z,60.09
2022-09-11T18:50:05.237Z,60.44
2022-09-11T18:52:34.161Z,59.97
2022-09-11T18:55:04.012Z,60.39
2022-09-11T18:57:37.394Z,60.26
2022-09-11T19:00:14.694Z,60.36
2022-09-11T19:02:45.370Z,60.20
2022-09-11T19:05:18.395Z,60.07
2022-09-11T19:07:48.923Z,60.34
2022-09-11T19:10:18.673Z,60.33
2022-09-11T19:12:49.810Z,60.43
2022-09-11T19:15:18.582Z,60.24
2022-09-11T19:17:48.905Z,60.11
2022-09-11T19:20:20.361Z,60.05
2022-09-11T19:22:49.246Z,60.15
2022-09-11T19:25:18.515Z,59.99
2022-09-11T19:27:47.231Z,60.10
2022-09-11T19:30:16.917Z,60.25
2022-09-11T19:32:45.904Z,60.13
2022-09-11T19:35:14.804Z,60.04
2022-09-11T19:37:43.613Z,60.16
2022-09-11T19:40:12.389Z,60.33
2022-09-11T19:42:41.313Z,60.36
2022-09-11T19:45:10.102Z,60.26
2022-09-11T19:47:38.868Z,60.48
2022-09-11T19:50:09.100Z,60.30
2022-09-11T19:52:37.866Z,60.54
2022-09-11T19:55:06.883Z,60.53
2022-09-11T19:57:35.609Z,60.57
2022-09-11T20:00:05.747Z,60.64
2022-09-11T20:02:35.808Z,60.97
2022-09-11T20:05:04.625Z,60.92
2022-09-11T20:07:33.357Z,60.71
2022-09-11T20:10:02.157Z,60.56
2022-09-11T20:12:37.582Z,60.36
2022-09-11T20:15:07.948Z,60.54
2022-09-11T20:17:36.697Z,60.34
2022-09-11T20:20:07.418Z,60.51
2022-09-11T20:22:36.168Z,60.35
2022-09-11T20:25:05.461Z,60.54
2022-09-11T20:27:34.853Z,60.62
2022-09-11T20:30:04.689Z,60.59
2022-09-11T20:32:36.629Z,60.52
2022-09-11T20:35:06.454Z,60.56
2022-09-11T20:37:35.384Z,60.19
2022-09-11T20:40:07.116Z,60.39
2022-09-11T20:42:35.859Z,60.24
2022-09-11T20:45:05.696Z,60.42
2022-09-11T20:47:34.397Z,60.53
2022-09-11T20:50:03.615Z,60.35
2022-09-11T20:52:38.650Z,60.46
2022-09-11T20:55:08.774Z,60.48
2022-09-11T20:57:37.503Z,60.41
2022-09-11T21:00:07.929Z,60.54
2022-09-11T21:02:36.942Z,60.53
2022-09-11T21:05:06.091Z,60.46
2022-09-11T21:07:34.784Z,60.54
2022-09-11T21:10:03.537Z,60.40
2022-09-11T21:12:32.594Z,60.35
2022-09-11T21:15:01.570Z,60.26
2022-09-11T21:17:31.381Z,60.31
2022-09-11T21:20:00.337Z,60.16
2022-09-11T21:22:29.107Z,60.52
2022-09-11T21:24:58.079Z,60.35
2022-09-11T21:27:26.812Z,60.33
2022-09-11T21:29:56.069Z,60.28
2022-09-11T21:32:24.865Z,60.28
2022-09-11T21:34:53.648Z,60.31
2022-09-11T21:37:22.970Z,60.32
2022-09-11T21:39:52.147Z,60.29
2022-09-11T21:42:21.038Z,60.46
2022-09-11T21:44:49.731Z,60.29
2022-09-11T21:47:18.844Z,60.28
2022-09-11T21:49:47.709Z,60.43
2022-09-11T21:52:16.464Z,60.24
2022-09-11T21:54:45.283Z,60.20
2022-09-11T21:57:14.071Z,60.28
2022-09-11T21:59:42.826Z,60.26
2022-09-11T22:02:12.614Z,60.23
2022-09-11T22:04:41.718Z,60.14
2022-09-11T22:07:12.830Z,60.39
2022-09-11T22:09:41.614Z,60.09
2022-09-11T22:12:11.166Z,60.29
2022-09-11T22:14:39.936Z,60.12
2022-09-11T22:17:08.862Z,60.17
2022-09-11T22:19:37.723Z,59.95
2022-09-11T22:22:07.414Z,60.22
2022-09-11T22:24:36.118Z,60.35
2022-09-11T22:27:05.419Z,60.14
2022-09-11T22:29:34.525Z,60.21
2022-09-11T22:32:03.765Z,60.49
2022-09-11T22:34:36.805Z,60.52
2022-09-11T22:37:06.792Z,60.69
2022-09-11T22:39:35.604Z,60.70
2022-09-11T22:42:05.217Z,60.80
2022-09-11T22:44:33.902Z,60.48
2022-09-11T22:47:02.789Z,60.60
2022-09-11T22:49:31.682Z,60.64
2022-09-11T22:52:00.383Z,60.65
2022-09-11T22:54:29.163Z,60.60
2022-09-11T22:56:57.892Z,60.63
2022-09-11T22:59:26.683Z,60.72
2022-09-11T23:01:56.378Z,60.93
2022-09-11T23:04:25.211Z,61.33
2022-09-11T23:07:12.563Z,61.41
2022-09-11T23:09:41.333Z,61.10
2022-09-11T23:12:10.294Z,61.23
2022-09-11T23:14:39.196Z,61.38
2022-09-11T23:17:07.954Z,61.57
2022-09-11T23:19:36.802Z,61.78
2022-09-11T23:22:05.577Z,61.79
2022-09-11T23:24:34.638Z,61.71
2022-09-11T23:27:03.393Z,61.65
2022-09-11T23:29:32.274Z,61.68
2022-09-11T23:32:00.986Z,61.96
2022-09-11T23:34:29.862Z,61.36
2022-09-11T23:36:58.642Z,61.30
2022-09-11T23:39:27.480Z,61.58
2022-09-11T23:41:56.250Z,61.20
2022-09-11T23:44:24.960Z,61.30
2022-09-11T23:46:53.806Z,61.41
2022-09-11T23:49:22.560Z,60.94
2022-09-11T23:51:51.322Z,61.17
2022-09-11T23:54:20.139Z,61.08
2022-09-11T23:56:49.389Z,61.06
2022-09-11T23:59:18.071Z,61.16
